Eirunepe, Brazil
Current Conditions -  °F | °C
As of 2:00 PM on Saturday 20 Dec 2014 (Local Time) from SBTT Reporting Station
Scattered Clouds Scattered Clouds  
Wind Chill: 88°   Ceiling: Unl
Heat Index: 100°   Visibility: 6mi
Dew Point: 77°   Wind: 3mph
Humidity: 70%   Direction: 280°W
Pressure: 29.8"   Gusts: NA
Location:  6.66°S, 69.87°W
Report Text: SBTT 201800Z 28003KT 9999 SCT018 31/25 Q1009
Loading
Personal Weather Stations






























Interactive Weather Map New forecast layout! Learn more

10-Day Weather Forecast

Advertisements
Track Severe Weather on mobile